sensor_id;sensor_type;location;lat;lon;timestamp;temperature;humidity
10030;DHT22;5055;52.054;8.524;2022-11-12T00:01:19;3.10;97.00
10030;DHT22;5055;52.054;8.524;2022-11-12T00:03:49;3.10;97.00
10030;DHT22;5055;52.054;8.524;2022-11-12T00:06:17;3.00;97.00
10030;DHT22;5055;52.054;8.524;2022-11-12T00:08:46;3.00;97.00
10030;DHT22;5055;52.054;8.524;2022-11-12T00:11:15;2.90;97.00
10030;DHT22;5055;52.054;8.524;2022-11-12T00:13:43;2.90;97.00
10030;DHT22;5055;52.054;8.524;2022-11-12T00:16:12;2.90;97.00
10030;DHT22;5055;52.054;8.524;2022-11-12T00:18:40;2.80;97.00
10030;DHT22;5055;52.054;8.524;2022-11-12T00:21:10;2.80;97.00
10030;DHT22;5055;52.054;8.524;2022-11-12T00:23:39;2.80;97.00
10030;DHT22;5055;52.054;8.524;2022-11-12T00:26:07;2.70;97.00
10030;DHT22;5055;52.054;8.524;2022-11-12T00:28:36;2.70;97.00
10030;DHT22;5055;52.054;8.524;2022-11-12T00:31:09;2.60;97.00
10030;DHT22;5055;52.054;8.524;2022-11-12T00:33:41;2.60;97.00
10030;DHT22;5055;52.054;8.524;2022-11-12T00:36:11;2.50;97.00
10030;DHT22;5055;52.054;8.524;2022-11-12T00:38:39;2.50;97.00
10030;DHT22;5055;52.054;8.524;2022-11-12T00:41:08;2.50;97.00
10030;DHT22;5055;52.054;8.524;2022-11-12T00:43:36;2.50;97.00
10030;DHT22;5055;52.054;8.524;2022-11-12T00:46:04;2.40;97.00
10030;DHT22;5055;52.054;8.524;2022-11-12T00:48:35;2.40;97.00
10030;DHT22;5055;52.054;8.524;2022-11-12T00:51:05;2.40;97.00
10030;DHT22;5055;52.054;8.524;2022-11-12T00:53:35;2.40;97.00
10030;DHT22;5055;52.054;8.524;2022-11-12T00:56:04;2.40;97.00
10030;DHT22;5055;52.054;8.524;2022-11-12T00:58:34;2.30;97.00
10030;DHT22;5055;52.054;8.524;2022-11-12T01:01:08;2.30;97.00
10030;DHT22;5055;52.054;8.524;2022-11-12T01:03:37;2.20;97.00
10030;DHT22;5055;52.054;8.524;2022-11-12T01:06:09;2.20;97.00
10030;DHT22;5055;52.054;8.524;2022-11-12T01:08:39;2.20;97.00
10030;DHT22;5055;52.054;8.524;2022-11-12T01:11:10;2.20;97.00
10030;DHT22;5055;52.054;8.524;2022-11-12T01:13:40;2.10;97.00
10030;DHT22;5055;52.054;8.524;2022-11-12T01:16:12;2.10;97.00
10030;DHT22;5055;52.054;8.524;2022-11-12T01:18:41;2.10;97.00
10030;DHT22;5055;52.054;8.524;2022-11-12T01:21:10;2.10;97.00
10030;DHT22;5055;52.054;8.524;2022-11-12T01:23:41;2.00;97.00
10030;DHT22;5055;52.054;8.524;2022-11-12T01:26:11;2.00;97.00
10030;DHT22;5055;52.054;8.524;2022-11-12T01:28:39;2.00;97.00
10030;DHT22;5055;52.054;8.524;2022-11-12T01:31:13;2.00;97.00
10030;DHT22;5055;52.054;8.524;2022-11-12T01:33:42;2.00;97.00
10030;DHT22;5055;52.054;8.524;2022-11-12T01:36:13;1.90;97.00
10030;DHT22;5055;52.054;8.524;2022-11-12T01:38:44;1.90;97.00
10030;DHT22;5055;52.054;8.524;2022-11-12T01:41:15;1.90;97.00
10030;DHT22;5055;52.054;8.524;2022-11-12T01:43:44;1.80;97.00
10030;DHT22;5055;52.054;8.524;2022-11-12T01:46:16;1.80;97.00
10030;DHT22;5055;52.054;8.524;2022-11-12T01:48:49;1.80;97.00
10030;DHT22;5055;52.054;8.524;2022-11-12T01:51:20;1.80;97.00
10030;DHT22;5055;52.054;8.524;2022-11-12T01:53:54;1.70;97.00
10030;DHT22;5055;52.054;8.524;2022-11-12T01:56:26;1.70;97.00
10030;DHT22;5055;52.054;8.524;2022-11-12T01:59:00;1.70;97.00
10030;DHT22;5055;52.054;8.524;2022-11-12T02:01:29;1.60;97.00
10030;DHT22;5055;52.054;8.524;2022-11-12T02:03:58;1.60;97.00
10030;DHT22;5055;52.054;8.524;2022-11-12T02:06:26;1.60;97.00
10030;DHT22;5055;52.054;8.524;2022-11-12T02:08:56;1.60;97.00
10030;DHT22;5055;52.054;8.524;2022-11-12T02:11:25;1.60;97.00
10030;DHT22;5055;52.054;8.524;2022-11-12T02:13:54;1.60;97.00
10030;DHT22;5055;52.054;8.524;2022-11-12T02:16:25;1.50;97.00
10030;DHT22;5055;52.054;8.524;2022-11-12T02:18:54;1.50;97.00
10030;DHT22;5055;52.054;8.524;2022-11-12T02:21:25;1.60;97.00
10030;DHT22;5055;52.054;8.524;2022-11-12T02:23:58;1.60;97.00
10030;DHT22;5055;52.054;8.524;2022-11-12T02:26:29;1.50;97.00
10030;DHT22;5055;52.054;8.524;2022-11-12T02:28:58;1.50;97.00
10030;DHT22;5055;52.054;8.524;2022-11-12T02:31:27;1.40;97.00
10030;DHT22;5055;52.054;8.524;2022-11-12T02:33:56;1.40;97.00
10030;DHT22;5055;52.054;8.524;2022-11-12T02:36:26;1.40;97.00
10030;DHT22;5055;52.054;8.524;2022-11-12T02:38:54;1.40;97.00
10030;DHT22;5055;52.054;8.524;2022-11-12T02:41:26;1.30;97.00
10030;DHT22;5055;52.054;8.524;2022-11-12T02:43:54;1.30;97.00
10030;DHT22;5055;52.054;8.524;2022-11-12T02:46:23;1.30;97.00
10030;DHT22;5055;52.054;8.524;2022-11-12T02:48:51;1.20;97.00
10030;DHT22;5055;52.054;8.524;2022-11-12T02:51:19;1.20;97.00
10030;DHT22;5055;52.054;8.524;2022-11-12T02:53:49;1.20;97.00
10030;DHT22;5055;52.054;8.524;2022-11-12T02:56:18;1.10;97.00
10030;DHT22;5055;52.054;8.524;2022-11-12T02:58:46;1.10;97.00
10030;DHT22;5055;52.054;8.524;2022-11-12T03:01:15;1.10;97.00
10030;DHT22;5055;52.054;8.524;2022-11-12T03:03:43;1.10;97.00
10030;DHT22;5055;52.054;8.524;2022-11-12T03:06:11;1.10;97.00
10030;DHT22;5055;52.054;8.524;2022-11-12T03:08:40;1.10;97.00
10030;DHT22;5055;52.054;8.524;2022-11-12T03:11:11;1.00;97.00
10030;DHT22;5055;52.054;8.524;2022-11-12T03:13:40;1.00;97.00
10030;DHT22;5055;52.054;8.524;2022-11-12T03:16:09;1.00;97.00
10030;DHT22;5055;52.054;8.524;2022-11-12T03:18:38;1.00;97.00
10030;DHT22;5055;52.054;8.524;2022-11-12T03:21:06;1.00;97.00
10030;DHT22;5055;52.054;8.524;2022-11-12T03:23:35;1.00;97.00
10030;DHT22;5055;52.054;8.524;2022-11-12T03:26:04;1.00;97.00
10030;DHT22;5055;52.054;8.524;2022-11-12T03:28:33;0.90;97.00
10030;DHT22;5055;52.054;8.524;2022-11-12T03:31:02;0.90;97.00
10030;DHT22;5055;52.054;8.524;2022-11-12T03:33:30;0.90;97.00
10030;DHT22;5055;52.054;8.524;2022-11-12T03:35:59;0.90;97.00
10030;DHT22;5055;52.054;8.524;2022-11-12T03:38:27;0.80;97.00
10030;DHT22;5055;52.054;8.524;2022-11-12T03:40:56;0.80;97.00
10030;DHT22;5055;52.054;8.524;2022-11-12T03:43:25;0.80;97.00
10030;DHT22;5055;52.054;8.524;2022-11-12T03:45:54;0.80;97.00
10030;DHT22;5055;52.054;8.524;2022-11-12T03:48:25;0.80;97.00
10030;DHT22;5055;52.054;8.524;2022-11-12T03:50:56;0.90;97.00
10030;DHT22;5055;52.054;8.524;2022-11-12T03:53:25;0.80;97.00
10030;DHT22;5055;52.054;8.524;2022-11-12T03:55:54;0.80;97.00
10030;DHT22;5055;52.054;8.524;2022-11-12T03:58:23;0.80;97.00
10030;DHT22;5055;52.054;8.524;2022-11-12T04:00:54;0.80;97.00
10030;DHT22;5055;52.054;8.524;2022-11-12T04:03:22;0.70;97.00
10030;DHT22;5055;52.054;8.524;2022-11-12T04:05:52;0.70;97.00
10030;DHT22;5055;52.054;8.524;2022-11-12T04:08:37;0.80;97.00
10030;DHT22;5055;52.054;8.524;2022-11-12T04:11:08;0.80;97.00
10030;DHT22;5055;52.054;8.524;2022-11-12T04:13:40;0.70;97.00
10030;DHT22;5055;52.054;8.524;2022-11-12T04:16:12;0.70;97.00
10030;DHT22;5055;52.054;8.524;2022-11-12T04:18:59;0.70;97.00
10030;DHT22;5055;52.054;8.524;2022-11-12T04:21:48;0.60;97.00
10030;DHT22;5055;52.054;8.524;2022-11-12T04:24:25;0.50;97.00
10030;DHT22;5055;52.054;8.524;2022-11-12T04:27:13;0.50;97.00
10030;DHT22;5055;52.054;8.524;2022-11-12T04:29:43;0.50;97.00
10030;DHT22;5055;52.054;8.524;2022-11-12T04:32:32;0.50;97.00
10030;DHT22;5055;52.054;8.524;2022-11-12T04:35:01;0.50;97.00
10030;DHT22;5055;52.054;8.524;2022-11-12T04:37:31;0.50;97.00
10030;DHT22;5055;52.054;8.524;2022-11-12T04:40:11;0.50;97.00
10030;DHT22;5055;52.054;8.524;2022-11-12T04:42:58;0.50;97.00
10030;DHT22;5055;52.054;8.524;2022-11-12T04:45:45;0.50;97.00
10030;DHT22;5055;52.054;8.524;2022-11-12T04:48:16;0.50;97.00
10030;DHT22;5055;52.054;8.524;2022-11-12T04:50:47;0.50;97.00
10030;DHT22;5055;52.054;8.524;2022-11-12T04:53:16;0.50;97.00
10030;DHT22;5055;52.054;8.524;2022-11-12T04:55:48;0.50;97.00
10030;DHT22;5055;52.054;8.524;2022-11-12T04:58:17;0.50;97.00
10030;DHT22;5055;52.054;8.524;2022-11-12T05:00:46;0.50;97.00
10030;DHT22;5055;52.054;8.524;2022-11-12T05:03:16;0.50;97.00
10030;DHT22;5055;52.054;8.524;2022-11-12T05:05:45;0.50;97.00
10030;DHT22;5055;52.054;8.524;2022-11-12T05:08:13;0.50;97.00
10030;DHT22;5055;52.054;8.524;2022-11-12T05:10:42;0.50;97.00
10030;DHT22;5055;52.054;8.524;2022-11-12T05:13:11;0.50;97.00
10030;DHT22;5055;52.054;8.524;2022-11-12T05:15:39;0.40;97.00
10030;DHT22;5055;52.054;8.524;2022-11-12T05:18:08;0.40;97.00
10030;DHT22;5055;52.054;8.524;2022-11-12T05:20:38;0.40;97.00
10030;DHT22;5055;52.054;8.524;2022-11-12T05:23:06;0.30;97.00
10030;DHT22;5055;52.054;8.524;2022-11-12T05:25:34;0.40;97.00
10030;DHT22;5055;52.054;8.524;2022-11-12T05:28:03;0.30;97.00
10030;DHT22;5055;52.054;8.524;2022-11-12T05:30:33;0.30;97.00
10030;DHT22;5055;52.054;8.524;2022-11-12T05:33:02;0.30;97.00
10030;DHT22;5055;52.054;8.524;2022-11-12T05:35:31;0.30;97.00
10030;DHT22;5055;52.054;8.524;2022-11-12T05:38:00;0.30;97.00
10030;DHT22;5055;52.054;8.524;2022-11-12T05:40:35;0.30;97.00
10030;DHT22;5055;52.054;8.524;2022-11-12T05:43:03;0.20;97.00
10030;DHT22;5055;52.054;8.524;2022-11-12T05:45:32;0.20;97.00
10030;DHT22;5055;52.054;8.524;2022-11-12T05:48:00;0.20;97.00
10030;DHT22;5055;52.054;8.524;2022-11-12T05:50:29;0.10;97.00
10030;DHT22;5055;52.054;8.524;2022-11-12T05:53:12;0.10;97.00
10030;DHT22;5055;52.054;8.524;2022-11-12T05:55:40;0.10;97.00
10030;DHT22;5055;52.054;8.524;2022-11-12T05:58:09;0.00;97.00
10030;DHT22;5055;52.054;8.524;2022-11-12T06:00:37;0.00;97.00
10030;DHT22;5055;52.054;8.524;2022-11-12T06:03:06;0.00;97.00
10030;DHT22;5055;52.054;8.524;2022-11-12T06:05:35;0.00;97.00
10030;DHT22;5055;52.054;8.524;2022-11-12T06:08:04;0.00;97.00
10030;DHT22;5055;52.054;8.524;2022-11-12T06:10:35;0.00;97.00
10030;DHT22;5055;52.054;8.524;2022-11-12T06:13:03;0.10;97.00
10030;DHT22;5055;52.054;8.524;2022-11-12T06:15:32;0.10;97.00
10030;DHT22;5055;52.054;8.524;2022-11-12T06:18:05;0.10;97.00
10030;DHT22;5055;52.054;8.524;2022-11-12T06:20:34;0.10;97.00
10030;DHT22;5055;52.054;8.524;2022-11-12T06:23:02;0.00;97.00
10030;DHT22;5055;52.054;8.524;2022-11-12T06:25:31;0.00;97.00
10030;DHT22;5055;52.054;8.524;2022-11-12T06:28:01;0.00;97.00
10030;DHT22;5055;52.054;8.524;2022-11-12T06:30:29;0.00;97.00
10030;DHT22;5055;52.054;8.524;2022-11-12T06:32:58;0.00;97.00
10030;DHT22;5055;52.054;8.524;2022-11-12T06:35:26;0.00;97.00
10030;DHT22;5055;52.054;8.524;2022-11-12T06:37:57;0.00;97.00
10030;DHT22;5055;52.054;8.524;2022-11-12T06:40:25;-0.10;97.00
10030;DHT22;5055;52.054;8.524;2022-11-12T06:42:57;-0.10;97.00
10030;DHT22;5055;52.054;8.524;2022-11-12T06:45:27;0.00;97.00
10030;DHT22;5055;52.054;8.524;2022-11-12T06:47:56;0.00;97.00
10030;DHT22;5055;52.054;8.524;2022-11-12T06:50:25;0.00;97.00
10030;DHT22;5055;52.054;8.524;2022-11-12T06:52:57;0.00;97.00
10030;DHT22;5055;52.054;8.524;2022-11-12T06:55:26;0.00;97.00
10030;DHT22;5055;52.054;8.524;2022-11-12T06:57:54;0.00;97.00
10030;DHT22;5055;52.054;8.524;2022-11-12T07:00:22;0.10;97.00
10030;DHT22;5055;52.054;8.524;2022-11-12T07:02:52;0.10;97.00
10030;DHT22;5055;52.054;8.524;2022-11-12T07:05:21;0.10;97.00
10030;DHT22;5055;52.054;8.524;2022-11-12T07:07:49;0.20;97.00
10030;DHT22;5055;52.054;8.524;2022-11-12T07:10:18;0.20;97.00
10030;DHT22;5055;52.054;8.524;2022-11-12T07:12:46;0.30;97.00
10030;DHT22;5055;52.054;8.524;2022-11-12T07:15:19;0.30;97.00
10030;DHT22;5055;52.054;8.524;2022-11-12T07:17:47;0.40;97.00
10030;DHT22;5055;52.054;8.524;2022-11-12T07:20:17;0.40;97.00
10030;DHT22;5055;52.054;8.524;2022-11-12T07:22:46;0.40;97.00
10030;DHT22;5055;52.054;8.524;2022-11-12T07:25:14;0.50;97.00
10030;DHT22;5055;52.054;8.524;2022-11-12T07:27:43;0.50;97.00
10030;DHT22;5055;52.054;8.524;2022-11-12T07:30:12;0.50;97.00
10030;DHT22;5055;52.054;8.524;2022-11-12T07:32:41;0.50;97.00
10030;DHT22;5055;52.054;8.524;2022-11-12T07:35:18;0.60;97.00
10030;DHT22;5055;52.054;8.524;2022-11-12T07:37:46;0.60;97.00
10030;DHT22;5055;52.054;8.524;2022-11-12T07:40:15;0.60;97.00
10030;DHT22;5055;52.054;8.524;2022-11-12T07:42:43;0.70;97.00
10030;DHT22;5055;52.054;8.524;2022-11-12T07:45:11;0.70;97.00
10030;DHT22;5055;52.054;8.524;2022-11-12T07:47:40;0.80;97.00
10030;DHT22;5055;52.054;8.524;2022-11-12T07:50:09;0.90;97.00
10030;DHT22;5055;52.054;8.524;2022-11-12T07:52:38;0.90;97.00
10030;DHT22;5055;52.054;8.524;2022-11-12T07:55:07;1.00;97.00
10030;DHT22;5055;52.054;8.524;2022-11-12T07:57:36;1.10;97.00
10030;DHT22;5055;52.054;8.524;2022-11-12T08:00:05;1.20;97.00
10030;DHT22;5055;52.054;8.524;2022-11-12T08:02:34;1.30;97.00
10030;DHT22;5055;52.054;8.524;2022-11-12T08:05:03;1.60;97.00
10030;DHT22;5055;52.054;8.524;2022-11-12T08:07:41;1.80;97.00
10030;DHT22;5055;52.054;8.524;2022-11-12T08:10:10;2.00;97.00
10030;DHT22;5055;52.054;8.524;2022-11-12T08:12:38;2.30;97.00
10030;DHT22;5055;52.054;8.524;2022-11-12T08:15:07;2.70;97.00
10030;DHT22;5055;52.054;8.524;2022-11-12T08:17:37;3.20;97.00
10030;DHT22;5055;52.054;8.524;2022-11-12T08:20:07;3.70;97.00
10030;DHT22;5055;52.054;8.524;2022-11-12T08:22:35;4.10;97.00
10030;DHT22;5055;52.054;8.524;2022-11-12T08:25:06;4.60;97.00
10030;DHT22;5055;52.054;8.524;2022-11-12T08:27:34;5.00;97.00
10030;DHT22;5055;52.054;8.524;2022-11-12T08:30:04;5.30;97.00
10030;DHT22;5055;52.054;8.524;2022-11-12T08:32:32;5.60;97.00
10030;DHT22;5055;52.054;8.524;2022-11-12T08:35:01;6.10;97.00
10030;DHT22;5055;52.054;8.524;2022-11-12T08:37:29;6.50;97.00
10030;DHT22;5055;52.054;8.524;2022-11-12T08:39:58;6.80;97.00
10030;DHT22;5055;52.054;8.524;2022-11-12T08:42:27;7.30;97.00
10030;DHT22;5055;52.054;8.524;2022-11-12T08:44:56;7.70;97.00
10030;DHT22;5055;52.054;8.524;2022-11-12T08:47:24;8.00;97.00
10030;DHT22;5055;52.054;8.524;2022-11-12T08:49:53;8.30;97.00
10030;DHT22;5055;52.054;8.524;2022-11-12T08:52:21;8.60;97.00
10030;DHT22;5055;52.054;8.524;2022-11-12T08:54:49;8.90;97.00
10030;DHT22;5055;52.054;8.524;2022-11-12T08:57:18;9.30;97.00
10030;DHT22;5055;52.054;8.524;2022-11-12T08:59:47;9.60;97.00
10030;DHT22;5055;52.054;8.524;2022-11-12T09:02:16;9.90;97.00
10030;DHT22;5055;52.054;8.524;2022-11-12T09:04:45;10.20;97.00
10030;DHT22;5055;52.054;8.524;2022-11-12T09:07:13;10.30;97.00
10030;DHT22;5055;52.054;8.524;2022-11-12T09:10:01;10.10;97.00
10030;DHT22;5055;52.054;8.524;2022-11-12T09:12:30;9.80;97.00
10030;DHT22;5055;52.054;8.524;2022-11-12T09:15:00;9.50;97.00
10030;DHT22;5055;52.054;8.524;2022-11-12T09:17:53;9.30;97.00
10030;DHT22;5055;52.054;8.524;2022-11-12T09:20:22;9.10;97.00
10030;DHT22;5055;52.054;8.524;2022-11-12T09:22:51;8.90;97.00
10030;DHT22;5055;52.054;8.524;2022-11-12T09:25:19;8.80;97.00
10030;DHT22;5055;52.054;8.524;2022-11-12T09:27:48;8.60;97.00
10030;DHT22;5055;52.054;8.524;2022-11-12T09:30:17;8.50;97.00
10030;DHT22;5055;52.054;8.524;2022-11-12T09:32:46;8.40;97.00
10030;DHT22;5055;52.054;8.524;2022-11-12T09:35:15;8.30;97.00
10030;DHT22;5055;52.054;8.524;2022-11-12T09:37:43;8.10;97.00
10030;DHT22;5055;52.054;8.524;2022-11-12T09:40:17;8.10;97.00
10030;DHT22;5055;52.054;8.524;2022-11-12T09:42:50;8.10;97.00
10030;DHT22;5055;52.054;8.524;2022-11-12T09:45:25;8.10;97.00
10030;DHT22;5055;52.054;8.524;2022-11-12T09:47:57;8.10;97.00
10030;DHT22;5055;52.054;8.524;2022-11-12T09:50:29;8.10;97.00
10030;DHT22;5055;52.054;8.524;2022-11-12T09:53:03;8.20;97.00
10030;DHT22;5055;52.054;8.524;2022-11-12T09:55:38;8.20;97.00
10030;DHT22;5055;52.054;8.524;2022-11-12T09:58:10;8.40;97.00
10030;DHT22;5055;52.054;8.524;2022-11-12T10:00:42;8.60;97.00
10030;DHT22;5055;52.054;8.524;2022-11-12T10:03:23;8.70;97.00
10030;DHT22;5055;52.054;8.524;2022-11-12T10:06:00;8.90;97.00
10030;DHT22;5055;52.054;8.524;2022-11-12T10:08:49;9.10;97.00
10030;DHT22;5055;52.054;8.524;2022-11-12T10:14:48;9.30;97.00
10030;DHT22;5055;52.054;8.524;2022-11-12T10:17:32;9.50;97.00
10030;DHT22;5055;52.054;8.524;2022-11-12T10:20:12;9.80;97.00
10030;DHT22;5055;52.054;8.524;2022-11-12T10:23:03;10.10;97.00
10030;DHT22;5055;52.054;8.524;2022-11-12T10:25:34;10.30;97.00
10030;DHT22;5055;52.054;8.524;2022-11-12T10:28:12;10.50;97.00
10030;DHT22;5055;52.054;8.524;2022-11-12T10:30:42;10.70;97.00
10030;DHT22;5055;52.054;8.524;2022-11-12T10:33:14;10.70;97.00
10030;DHT22;5055;52.054;8.524;2022-11-12T10:35:42;10.90;97.00
10030;DHT22;5055;52.054;8.524;2022-11-12T10:38:13;11.10;97.00
10030;DHT22;5055;52.054;8.524;2022-11-12T10:40:44;11.20;97.00
10030;DHT22;5055;52.054;8.524;2022-11-12T10:43:23;11.20;97.00
10030;DHT22;5055;52.054;8.524;2022-11-12T10:45:51;11.00;97.00
10030;DHT22;5055;52.054;8.524;2022-11-12T10:48:53;10.90;97.00
10030;DHT22;5055;52.054;8.524;2022-11-12T10:51:25;10.90;97.00
10030;DHT22;5055;52.054;8.524;2022-11-12T10:53:54;11.00;97.00
10030;DHT22;5055;52.054;8.524;2022-11-12T10:56:25;10.90;97.00
10030;DHT22;5055;52.054;8.524;2022-11-12T10:59:12;11.00;97.00
10030;DHT22;5055;52.054;8.524;2022-11-12T11:01:42;10.90;97.00
10030;DHT22;5055;52.054;8.524;2022-11-12T11:04:27;10.80;97.00
10030;DHT22;5055;52.054;8.524;2022-11-12T11:07:03;10.80;97.00
10030;DHT22;5055;52.054;8.524;2022-11-12T11:09:33;10.80;97.00
10030;DHT22;5055;52.054;8.524;2022-11-12T11:12:01;10.70;97.00
10030;DHT22;5055;52.054;8.524;2022-11-12T11:14:32;10.70;97.00
10030;DHT22;5055;52.054;8.524;2022-11-12T11:17:02;10.60;97.00
10030;DHT22;5055;52.054;8.524;2022-11-12T11:19:40;10.80;97.00
10030;DHT22;5055;52.054;8.524;2022-11-12T11:22:22;10.90;97.00
10030;DHT22;5055;52.054;8.524;2022-11-12T11:25:03;10.90;97.00
10030;DHT22;5055;52.054;8.524;2022-11-12T11:27:38;11.00;97.00
10030;DHT22;5055;52.054;8.524;2022-11-12T11:30:10;11.10;97.00
10030;DHT22;5055;52.054;8.524;2022-11-12T11:32:50;11.10;97.00
10030;DHT22;5055;52.054;8.524;2022-11-12T11:35:38;11.10;97.00
10030;DHT22;5055;52.054;8.524;2022-11-12T11:38:24;11.30;97.00
10030;DHT22;5055;52.054;8.524;2022-11-12T11:41:08;11.10;97.00
10030;DHT22;5055;52.054;8.524;2022-11-12T11:43:51;11.20;97.00
10030;DHT22;5055;52.054;8.524;2022-11-12T11:46:41;11.30;97.00
10030;DHT22;5055;52.054;8.524;2022-11-12T11:49:30;11.30;97.00
10030;DHT22;5055;52.054;8.524;2022-11-12T11:52:10;11.40;97.00
10030;DHT22;5055;52.054;8.524;2022-11-12T11:55:01;11.30;97.00
10030;DHT22;5055;52.054;8.524;2022-11-12T11:57:36;11.40;97.00
10030;DHT22;5055;52.054;8.524;2022-11-12T12:00:14;11.50;97.00
10030;DHT22;5055;52.054;8.524;2022-11-12T12:03:08;11.50;97.00
10030;DHT22;5055;52.054;8.524;2022-11-12T12:05:43;11.70;97.00
10030;DHT22;5055;52.054;8.524;2022-11-12T12:08:19;11.70;97.00
10030;DHT22;5055;52.054;8.524;2022-11-12T12:10:55;11.80;97.00
10030;DHT22;5055;52.054;8.524;2022-11-12T12:13:43;12.00;97.00
10030;DHT22;5055;52.054;8.524;2022-11-12T12:16:51;12.10;97.00
10030;DHT22;5055;52.054;8.524;2022-11-12T12:19:31;12.40;97.00
10030;DHT22;5055;52.054;8.524;2022-11-12T12:22:08;12.40;97.00
10030;DHT22;5055;52.054;8.524;2022-11-12T12:24:45;12.30;97.00
10030;DHT22;5055;52.054;8.524;2022-11-12T12:27:17;12.50;97.00
10030;DHT22;5055;52.054;8.524;2022-11-12T12:29:49;12.80;97.00
10030;DHT22;5055;52.054;8.524;2022-11-12T12:32:24;13.10;97.00
10030;DHT22;5055;52.054;8.524;2022-11-12T12:35:00;13.70;97.00
10030;DHT22;5055;52.054;8.524;2022-11-12T12:37:36;14.40;97.00
10030;DHT22;5055;52.054;8.524;2022-11-12T12:40:15;14.80;97.00
10030;DHT22;5055;52.054;8.524;2022-11-12T12:42:49;14.80;97.00
10030;DHT22;5055;52.054;8.524;2022-11-12T12:45:31;15.00;97.00
10030;DHT22;5055;52.054;8.524;2022-11-12T12:48:04;15.10;97.00
10030;DHT22;5055;52.054;8.524;2022-11-12T12:50:35;15.30;97.00
10030;DHT22;5055;52.054;8.524;2022-11-12T12:53:15;15.50;97.00
10030;DHT22;5055;52.054;8.524;2022-11-12T12:55:48;15.80;97.00
10030;DHT22;5055;52.054;8.524;2022-11-12T12:58:26;16.10;97.00
10030;DHT22;5055;52.054;8.524;2022-11-12T13:01:00;16.80;97.00
10030;DHT22;5055;52.054;8.524;2022-11-12T13:03:54;17.40;97.00
10030;DHT22;5055;52.054;8.524;2022-11-12T13:06:27;17.90;97.00
10030;DHT22;5055;52.054;8.524;2022-11-12T13:09:00;18.00;97.00
10030;DHT22;5055;52.054;8.524;2022-11-12T13:11:49;17.90;97.00
10030;DHT22;5055;52.054;8.524;2022-11-12T13:14:54;17.70;97.00
10030;DHT22;5055;52.054;8.524;2022-11-12T13:17:44;17.20;97.00
10030;DHT22;5055;52.054;8.524;2022-11-12T13:20:34;16.80;97.00
10030;DHT22;5055;52.054;8.524;2022-11-12T13:23:11;16.30;97.00
10030;DHT22;5055;52.054;8.524;2022-11-12T13:26:44;16.00;97.00
10030;DHT22;5055;52.054;8.524;2022-11-12T13:29:45;15.70;97.00
10030;DHT22;5055;52.054;8.524;2022-11-12T13:32:28;15.20;97.00
10030;DHT22;5055;52.054;8.524;2022-11-12T13:35:26;14.90;97.00
10030;DHT22;5055;52.054;8.524;2022-11-12T13:37:58;14.70;97.00
10030;DHT22;5055;52.054;8.524;2022-11-12T13:40:41;14.40;97.00
10030;DHT22;5055;52.054;8.524;2022-11-12T13:46:25;14.10;97.00
10030;DHT22;5055;52.054;8.524;2022-11-12T13:48:59;13.80;97.00
10030;DHT22;5055;52.054;8.524;2022-11-12T13:51:37;13.70;97.00
10030;DHT22;5055;52.054;8.524;2022-11-12T13:54:26;13.50;97.00
10030;DHT22;5055;52.054;8.524;2022-11-12T13:56:55;13.40;97.00
10030;DHT22;5055;52.054;8.524;2022-11-12T13:59:25;13.30;97.00
10030;DHT22;5055;52.054;8.524;2022-11-12T14:01:54;13.10;97.00
10030;DHT22;5055;52.054;8.524;2022-11-12T14:04:23;13.00;97.00
10030;DHT22;5055;52.054;8.524;2022-11-12T14:06:59;12.90;97.00
10030;DHT22;5055;52.054;8.524;2022-11-12T14:09:43;12.80;97.00
10030;DHT22;5055;52.054;8.524;2022-11-12T14:12:38;12.80;97.00
10030;DHT22;5055;52.054;8.524;2022-11-12T14:15:22;12.70;97.00
10030;DHT22;5055;52.054;8.524;2022-11-12T14:17:59;12.70;97.00
10030;DHT22;5055;52.054;8.524;2022-11-12T14:20:34;12.60;97.00
10030;DHT22;5055;52.054;8.524;2022-11-12T14:23:07;12.60;97.00
10030;DHT22;5055;52.054;8.524;2022-11-12T14:25:45;12.60;97.00
10030;DHT22;5055;52.054;8.524;2022-11-12T14:28:23;12.60;97.00
10030;DHT22;5055;52.054;8.524;2022-11-12T14:30:54;12.50;97.00
10030;DHT22;5055;52.054;8.524;2022-11-12T14:33:25;12.50;97.00
10030;DHT22;5055;52.054;8.524;2022-11-12T14:35:57;12.50;97.00
10030;DHT22;5055;52.054;8.524;2022-11-12T14:38:29;12.40;97.00
10030;DHT22;5055;52.054;8.524;2022-11-12T14:41:02;12.40;97.00
10030;DHT22;5055;52.054;8.524;2022-11-12T14:43:34;12.30;97.00
10030;DHT22;5055;52.054;8.524;2022-11-12T14:46:06;12.30;97.00
10030;DHT22;5055;52.054;8.524;2022-11-12T14:48:46;12.30;97.00
10030;DHT22;5055;52.054;8.524;2022-11-12T14:51:16;12.20;97.00
10030;DHT22;5055;52.054;8.524;2022-11-12T14:53:47;12.10;97.00
10030;DHT22;5055;52.054;8.524;2022-11-12T14:56:23;12.10;97.00
10030;DHT22;5055;52.054;8.524;2022-11-12T14:59:01;12.10;97.00
10030;DHT22;5055;52.054;8.524;2022-11-12T15:01:36;12.10;97.00
10030;DHT22;5055;52.054;8.524;2022-11-12T15:04:25;12.10;97.00
10030;DHT22;5055;52.054;8.524;2022-11-12T15:06:55;12.10;97.00
10030;DHT22;5055;52.054;8.524;2022-11-12T15:09:36;12.00;97.00
10030;DHT22;5055;52.054;8.524;2022-11-12T15:12:07;12.00;97.00
10030;DHT22;5055;52.054;8.524;2022-11-12T15:14:37;11.90;97.00
10030;DHT22;5055;52.054;8.524;2022-11-12T15:17:25;11.80;97.00
10030;DHT22;5055;52.054;8.524;2022-11-12T15:20:00;11.70;97.00
10030;DHT22;5055;52.054;8.524;2022-11-12T15:22:29;11.60;97.00
10030;DHT22;5055;52.054;8.524;2022-11-12T15:25:09;11.50;97.00
10030;DHT22;5055;52.054;8.524;2022-11-12T15:27:40;11.40;97.00
10030;DHT22;5055;52.054;8.524;2022-11-12T15:30:18;11.30;97.00
10030;DHT22;5055;52.054;8.524;2022-11-12T15:33:06;11.20;97.00
10030;DHT22;5055;52.054;8.524;2022-11-12T15:35:36;11.10;97.00
10030;DHT22;5055;52.054;8.524;2022-11-12T15:38:09;11.00;97.00
10030;DHT22;5055;52.054;8.524;2022-11-12T15:40:40;10.90;97.00
10030;DHT22;5055;52.054;8.524;2022-11-12T15:43:15;10.70;97.00
10030;DHT22;5055;52.054;8.524;2022-11-12T15:45:49;10.60;97.00
10030;DHT22;5055;52.054;8.524;2022-11-12T15:48:19;10.40;97.00
10030;DHT22;5055;52.054;8.524;2022-11-12T15:50:48;10.30;97.00
10030;DHT22;5055;52.054;8.524;2022-11-12T15:53:17;10.10;97.00
10030;DHT22;5055;52.054;8.524;2022-11-12T15:55:46;10.00;97.00
10030;DHT22;5055;52.054;8.524;2022-11-12T15:58:17;9.90;97.00
10030;DHT22;5055;52.054;8.524;2022-11-12T16:00:46;9.80;97.00
10030;DHT22;5055;52.054;8.524;2022-11-12T16:03:17;9.70;97.00
10030;DHT22;5055;52.054;8.524;2022-11-12T16:05:47;9.60;97.00
10030;DHT22;5055;52.054;8.524;2022-11-12T16:08:16;9.50;97.00
10030;DHT22;5055;52.054;8.524;2022-11-12T16:10:45;9.40;97.00
10030;DHT22;5055;52.054;8.524;2022-11-12T16:13:15;9.20;97.00
10030;DHT22;5055;52.054;8.524;2022-11-12T16:15:45;9.10;97.00
10030;DHT22;5055;52.054;8.524;2022-11-12T16:18:17;9.00;97.00
10030;DHT22;5055;52.054;8.524;2022-11-12T16:20:49;8.90;97.00
10030;DHT22;5055;52.054;8.524;2022-11-12T16:23:19;8.80;97.00
10030;DHT22;5055;52.054;8.524;2022-11-12T16:25:48;8.70;97.00
10030;DHT22;5055;52.054;8.524;2022-11-12T16:28:18;8.60;97.00
10030;DHT22;5055;52.054;8.524;2022-11-12T16:30:47;8.50;97.00
10030;DHT22;5055;52.054;8.524;2022-11-12T16:33:17;8.40;97.00
10030;DHT22;5055;52.054;8.524;2022-11-12T16:35:45;8.30;97.00
10030;DHT22;5055;52.054;8.524;2022-11-12T16:38:16;8.30;97.00
10030;DHT22;5055;52.054;8.524;2022-11-12T16:40:45;8.20;97.00